Portada
METAR-TAF:

METAR-TAF

Aeroports :

Aeroport Internacional de Gafsa

Gafsa, Tunísia

latitud: 34-25N, longitud: 008-49E, altitud: 313 m

Observació

L'informe es va fer fa 16 minuts, a les 11:00 UTC
Vent 8 kt del Sud, variant entre Sud-Est i Oest/Sud-Oest
Temperatura 30°C
Humitat 22%
Pressió 1012 hPa
Visibilitat 10 km o més
Escasses núvols a una alçada de 2600 ft

METAR: DTTF 031100Z 18008KT 140V250 9999 FEW026 30/06 Q1012 NOSIG

Hora: 12:16 (11:16 UTC)

Pronòstic

L'informe es va fer fa 2 hores i 16 minuts, a les 09:00 UTC
Pronòstic vàlid del 03 a les 10 UTC al 03 a les 19 UTC
Vent 3 kt amb direcció variable
Visibilitat 10 km o més
Escasses núvols a una alçada de 2600 ft
Probabilitat 30% :
Temporalment
l' 03 a les 12 UTC al 03 a les 16 UTC
Visibilitat: 4000 m
Escasses núvols a una alçada de 2600 ft, Cumulonimbus.
tempesta, pluja

TAF: DTTF 030900Z 0310/0319 VRB03KT 9999 FEW026 PROB30 TEMPO 0312/0316 4000 -TSRA FEW026CB

Observacions i pronòstics meteorològics de més de 4000 aeroports (METAR i TAF).

Les estacions disponibles són els punts grocs i vermells al mapa.

Posi el ratolí al punt desitjat per veure el nom de l'estació.

Feu clic per veure les observacions i els pronòstics meteorològics.

Per canviar el mapa: feu clic els botons verds amb una creu de color negre per apropar; al botó verd amb un guió per allunyar la imatge; o en les fletxes verdes per a mapes adjacents.


METAR-TAF: